createdAt,value
2019-03-29T00:01:09.440Z,8.48
2019-03-29T00:02:15.561Z,8.50
2019-03-29T00:03:21.753Z,7.78
2019-03-29T00:04:27.243Z,8.58
2019-03-29T00:05:32.664Z,8.70
2019-03-29T00:06:38.032Z,8.55
2019-03-29T00:07:43.401Z,9.05
2019-03-29T00:08:48.997Z,9.05
2019-03-29T00:09:54.791Z,9.20
2019-03-29T00:11:00.192Z,8.08
2019-03-29T00:12:05.755Z,8.60
2019-03-29T00:13:14.498Z,8.85
2019-03-29T00:14:18.181Z,8.83
2019-03-29T00:15:23.560Z,8.48
2019-03-29T00:16:30.099Z,8.70
2019-03-29T00:17:35.508Z,9.03
2019-03-29T00:18:40.949Z,9.23
2019-03-29T00:19:46.326Z,9.15
2019-03-29T00:20:51.847Z,9.63
2019-03-29T00:21:57.393Z,9.88
2019-03-29T00:23:02.929Z,9.38
2019-03-29T00:24:08.440Z,9.70
2019-03-29T00:25:13.891Z,9.43
2019-03-29T00:26:19.340Z,8.85
2019-03-29T00:27:24.768Z,9.73
2019-03-29T00:28:30.348Z,10.35
2019-03-29T00:29:36.092Z,9.45
2019-03-29T00:30:41.644Z,9.85
2019-03-29T00:31:47.220Z,10.05
2019-03-29T00:32:52.704Z,9.35
2019-03-29T00:33:58.170Z,9.80
2019-03-29T00:35:03.644Z,10.20
2019-03-29T00:36:09.407Z,10.20
2019-03-29T00:37:14.741Z,10.45
2019-03-29T00:38:20.280Z,10.48
2019-03-29T00:39:25.800Z,10.10
2019-03-29T00:40:31.547Z,10.82
2019-03-29T00:41:38.045Z,10.40
2019-03-29T00:42:43.569Z,10.15
2019-03-29T00:43:49.052Z,9.83
2019-03-29T00:44:54.393Z,10.10
2019-03-29T00:45:59.860Z,10.80
2019-03-29T00:47:05.392Z,10.13
2019-03-29T00:48:10.747Z,10.85
2019-03-29T00:49:16.188Z,9.83
2019-03-29T00:50:21.672Z,12.33
2019-03-29T00:51:27.133Z,10.40
2019-03-29T00:52:32.424Z,10.50
2019-03-29T00:53:37.961Z,10.15
2019-03-29T00:54:43.512Z,11.55
2019-03-29T00:55:49.020Z,11.38
2019-03-29T00:56:54.612Z,10.53
2019-03-29T00:57:59.996Z,10.48
2019-03-29T00:59:05.543Z,10.65
2019-03-29T01:00:11.213Z,11.33
2019-03-29T01:01:16.544Z,10.70
2019-03-29T01:02:22.080Z,10.90
2019-03-29T01:03:27.712Z,11.20
2019-03-29T01:04:33.039Z,10.93
2019-03-29T01:05:38.468Z,9.93
2019-03-29T01:06:43.992Z,10.93
2019-03-29T01:07:49.539Z,10.58
2019-03-29T01:08:55.364Z,10.75
2019-03-29T01:10:00.932Z,11.28
2019-03-29T01:11:06.597Z,11.15
2019-03-29T01:12:12.168Z,11.75
2019-03-29T01:13:17.645Z,10.58
2019-03-29T01:14:23.260Z,11.10
2019-03-29T01:15:28.815Z,11.57
2019-03-29T01:16:34.414Z,11.60
2019-03-29T01:17:39.967Z,11.03
2019-03-29T01:18:45.547Z,11.43
2019-03-29T01:19:51.042Z,11.22
2019-03-29T01:20:56.493Z,11.57
2019-03-29T01:22:02.065Z,11.85
2019-03-29T01:23:07.567Z,11.78
2019-03-29T01:24:13.019Z,11.35
2019-03-29T01:25:18.450Z,11.33
2019-03-29T01:26:23.952Z,11.73
2019-03-29T01:27:29.495Z,11.05
2019-03-29T01:28:35.084Z,12.03
2019-03-29T01:29:40.701Z,11.78
2019-03-29T01:30:46.116Z,12.18
2019-03-29T01:31:51.560Z,11.70
2019-03-29T01:32:57.070Z,10.88
2019-03-29T01:34:02.491Z,10.90
2019-03-29T01:35:09.343Z,12.45
2019-03-29T01:36:14.958Z,11.08
2019-03-29T01:37:20.373Z,10.93
2019-03-29T01:38:25.827Z,11.50
2019-03-29T01:39:31.371Z,11.75
2019-03-29T01:40:36.744Z,12.50
2019-03-29T01:41:42.176Z,11.65
2019-03-29T01:42:47.600Z,11.88
2019-03-29T01:43:53.032Z,11.12
2019-03-29T01:44:58.376Z,12.65
2019-03-29T01:46:03.699Z,11.45
2019-03-29T01:47:09.360Z,12.25
2019-03-29T01:48:14.936Z,12.30
2019-03-29T01:49:20.374Z,12.82
2019-03-29T01:50:25.907Z,12.13
2019-03-29T01:51:31.276Z,12.20
2019-03-29T01:52:36.850Z,12.47
2019-03-29T01:53:42.339Z,12.28
2019-03-29T01:54:47.909Z,10.98
2019-03-29T01:55:53.321Z,12.28
2019-03-29T01:56:58.766Z,12.50
2019-03-29T01:58:04.212Z,12.70
2019-03-29T01:59:09.689Z,12.33
2019-03-29T02:00:19.152Z,12.95
2019-03-29T02:01:24.688Z,12.63
2019-03-29T02:02:30.191Z,13.13
2019-03-29T02:03:35.579Z,12.60
2019-03-29T02:04:41.261Z,12.25
2019-03-29T02:05:46.690Z,11.85
2019-03-29T02:06:52.052Z,13.00
2019-03-29T02:07:57.743Z,11.80
2019-03-29T02:09:04.966Z,12.40
2019-03-29T02:10:11.256Z,12.75
2019-03-29T02:11:16.640Z,12.93
2019-03-29T02:12:21.953Z,13.40
2019-03-29T02:13:27.499Z,12.47
2019-03-29T02:14:33.047Z,13.10
2019-03-29T02:15:38.458Z,13.00
2019-03-29T02:16:43.833Z,13.10
2019-03-29T02:17:49.165Z,13.25
2019-03-29T02:18:54.922Z,13.20
2019-03-29T02:20:00.312Z,13.13
2019-03-29T02:21:05.757Z,13.15
2019-03-29T02:22:11.072Z,13.43
2019-03-29T02:23:16.644Z,13.40
2019-03-29T02:24:21.932Z,13.68
2019-03-29T02:25:27.418Z,12.53
2019-03-29T02:26:32.909Z,13.70
2019-03-29T02:27:38.462Z,13.80
2019-03-29T02:28:44.219Z,13.08
2019-03-29T02:29:50.503Z,13.45
2019-03-29T02:30:55.842Z,13.40
2019-03-29T02:32:01.273Z,13.60
2019-03-29T02:33:06.770Z,13.45
2019-03-29T02:34:12.170Z,12.33
2019-03-29T02:35:17.509Z,13.05
2019-03-29T02:36:23.093Z,13.53
2019-03-29T02:37:29.522Z,13.20
2019-03-29T02:38:53.507Z,13.03
2019-03-29T02:39:42.197Z,14.00
2019-03-29T02:40:47.656Z,13.38
2019-03-29T02:41:53.119Z,13.53
2019-03-29T02:42:58.426Z,13.25
2019-03-29T02:44:03.884Z,13.20
2019-03-29T02:45:09.346Z,12.47
2019-03-29T02:46:14.615Z,12.60
2019-03-29T02:47:21.525Z,13.62
2019-03-29T02:48:27.069Z,13.80
2019-03-29T02:49:32.396Z,13.03
2019-03-29T02:50:37.881Z,13.43
2019-03-29T02:51:43.296Z,14.03
2019-03-29T02:52:48.609Z,13.58
2019-03-29T02:53:55.211Z,13.80
2019-03-29T02:55:00.824Z,13.62
2019-03-29T02:56:06.249Z,13.55
2019-03-29T02:57:11.524Z,14.10
2019-03-29T02:58:16.960Z,13.10
2019-03-29T02:59:22.381Z,13.78
2019-03-29T03:00:27.719Z,13.08
2019-03-29T03:01:33.130Z,14.25
2019-03-29T03:02:38.673Z,13.10
2019-03-29T03:03:44.001Z,13.68
2019-03-29T03:04:50.431Z,13.65
2019-03-29T03:05:55.860Z,14.03
2019-03-29T03:07:01.320Z,13.93
2019-03-29T03:08:07.960Z,14.18
2019-03-29T03:09:14.734Z,13.80
2019-03-29T03:10:20.623Z,13.38
2019-03-29T03:11:26.037Z,13.32
2019-03-29T03:12:31.444Z,13.30
2019-03-29T03:13:37.004Z,13.85
2019-03-29T03:14:42.566Z,13.75
2019-03-29T03:15:48.057Z,13.28
2019-03-29T03:16:53.387Z,14.07
2019-03-29T03:17:58.828Z,13.20
2019-03-29T03:19:04.420Z,12.85
2019-03-29T03:20:15.015Z,14.23
2019-03-29T03:21:18.582Z,13.70
2019-03-29T03:22:24.283Z,13.93
2019-03-29T03:23:29.748Z,14.10
2019-03-29T03:24:35.189Z,13.60
2019-03-29T03:25:40.920Z,13.55
2019-03-29T03:26:46.316Z,13.58
2019-03-29T03:27:51.836Z,13.18
2019-03-29T03:28:57.241Z,14.35
2019-03-29T03:30:02.675Z,13.65
2019-03-29T03:31:08.241Z,14.65
2019-03-29T03:32:13.955Z,13.10
2019-03-29T03:33:19.438Z,13.10
2019-03-29T03:34:25.057Z,13.50
2019-03-29T03:35:30.360Z,14.68
2019-03-29T03:36:35.985Z,12.95
2019-03-29T03:37:41.805Z,13.50
2019-03-29T03:38:47.110Z,13.75
2019-03-29T03:39:53.887Z,13.43
2019-03-29T03:40:59.456Z,14.13
2019-03-29T03:42:05.175Z,13.32
2019-03-29T03:43:10.590Z,13.58
2019-03-29T03:44:16.065Z,13.32
2019-03-29T03:45:21.401Z,13.55
2019-03-29T03:46:26.859Z,13.68
2019-03-29T03:47:32.301Z,13.53
2019-03-29T03:48:37.596Z,12.93
2019-03-29T03:49:43.195Z,13.03
2019-03-29T03:50:48.947Z,13.20
2019-03-29T03:51:54.521Z,13.10
2019-03-29T03:52:59.902Z,13.00
2019-03-29T03:54:05.425Z,13.78
2019-03-29T03:55:11.003Z,13.93
2019-03-29T03:56:18.175Z,13.08
2019-03-29T03:57:25.485Z,12.98
2019-03-29T03:58:31.325Z,12.78
2019-03-29T03:59:36.892Z,14.40
2019-03-29T04:01:00.641Z,13.55
2019-03-29T04:02:06.016Z,14.65
2019-03-29T04:03:11.332Z,13.70
2019-03-29T04:04:16.865Z,12.95
2019-03-29T04:05:22.229Z,14.20
2019-03-29T04:06:27.876Z,14.07
2019-03-29T04:07:33.413Z,13.80
2019-03-29T04:08:38.860Z,13.83
2019-03-29T04:09:50.220Z,13.93
2019-03-29T04:10:51.350Z,14.07
2019-03-29T04:11:56.671Z,14.05
2019-03-29T04:13:02.139Z,14.73
2019-03-29T04:14:07.623Z,14.23
2019-03-29T04:15:13.300Z,14.00
2019-03-29T04:16:18.808Z,13.98
2019-03-29T04:17:24.188Z,14.43
2019-03-29T04:18:29.666Z,14.38
2019-03-29T04:19:35.057Z,13.58
2019-03-29T04:20:40.368Z,13.75
2019-03-29T04:21:45.817Z,14.53
2019-03-29T04:22:51.270Z,13.85
2019-03-29T04:23:56.601Z,14.65
2019-03-29T04:25:02.021Z,14.93
2019-03-29T04:26:07.467Z,14.98
2019-03-29T04:27:12.894Z,13.50
2019-03-29T04:28:18.325Z,15.38
2019-03-29T04:29:23.797Z,15.30
2019-03-29T04:30:29.369Z,15.23
2019-03-29T04:31:34.868Z,14.58
2019-03-29T04:32:40.393Z,15.08
2019-03-29T04:33:45.891Z,13.85
2019-03-29T04:34:51.160Z,15.55
2019-03-29T04:35:56.672Z,15.55
2019-03-29T04:37:02.255Z,15.18
2019-03-29T04:38:07.681Z,15.70
2019-03-29T04:39:13.059Z,15.78
2019-03-29T04:40:18.595Z,15.38
2019-03-29T04:41:24.040Z,15.05
2019-03-29T04:42:29.436Z,16.30
2019-03-29T04:43:34.892Z,15.68
2019-03-29T04:44:40.191Z,16.12
2019-03-29T04:45:45.497Z,15.20
2019-03-29T04:46:50.997Z,14.23
2019-03-29T04:47:56.420Z,13.68
2019-03-29T04:49:01.773Z,14.78
2019-03-29T04:50:08.089Z,14.85
2019-03-29T04:51:13.542Z,14.93
2019-03-29T04:52:18.994Z,14.83
2019-03-29T04:53:24.317Z,14.73
2019-03-29T04:54:29.755Z,14.05
2019-03-29T04:55:35.196Z,14.80
2019-03-29T04:56:40.643Z,13.65
2019-03-29T04:57:46.064Z,14.47
2019-03-29T04:58:51.513Z,14.90
2019-03-29T04:59:56.932Z,14.53
2019-03-29T05:01:02.264Z,15.23
2019-03-29T05:02:07.751Z,15.60
2019-03-29T05:03:13.285Z,14.73
2019-03-29T05:04:18.652Z,13.90
2019-03-29T05:05:24.074Z,14.45
2019-03-29T05:06:29.608Z,13.90
2019-03-29T05:07:37.060Z,14.03
2019-03-29T05:08:42.374Z,14.43
2019-03-29T05:09:47.884Z,13.83
2019-03-29T05:10:53.212Z,12.95
2019-03-29T05:11:58.641Z,13.68
2019-03-29T05:13:04.279Z,13.83
2019-03-29T05:14:09.676Z,12.93
2019-03-29T05:15:15.106Z,14.70
2019-03-29T05:16:20.656Z,14.28
2019-03-29T05:17:26.208Z,13.48
2019-03-29T05:18:31.635Z,14.53
2019-03-29T05:19:37.219Z,13.68
2019-03-29T05:20:42.680Z,14.53
2019-03-29T05:21:48.352Z,14.80
2019-03-29T05:22:53.974Z,14.28
2019-03-29T05:24:00.416Z,13.80
2019-03-29T05:25:06.459Z,14.43
2019-03-29T05:26:12.167Z,14.28
2019-03-29T05:27:17.709Z,13.70
2019-03-29T05:28:23.317Z,13.75
2019-03-29T05:29:28.934Z,14.50
2019-03-29T05:30:34.538Z,13.78
2019-03-29T05:31:40.103Z,13.98
2019-03-29T05:32:45.633Z,14.07
2019-03-29T05:33:51.252Z,14.05
2019-03-29T05:34:58.063Z,13.50
2019-03-29T05:36:03.709Z,12.78
2019-03-29T05:37:09.437Z,13.22
2019-03-29T05:38:14.782Z,12.90
2019-03-29T05:39:20.581Z,13.35
2019-03-29T05:40:34.707Z,13.13
2019-03-29T05:41:33.213Z,13.53
2019-03-29T05:42:39.065Z,13.68
2019-03-29T05:43:44.619Z,14.15
2019-03-29T05:44:50.302Z,12.93
2019-03-29T05:45:56.407Z,12.70
2019-03-29T05:47:02.035Z,13.32
2019-03-29T05:48:08.077Z,14.28
2019-03-29T05:49:13.742Z,13.30
2019-03-29T05:50:19.663Z,13.40
2019-03-29T05:51:25.233Z,13.00
2019-03-29T05:52:30.713Z,13.88
2019-03-29T05:53:36.287Z,13.88
2019-03-29T05:54:41.920Z,13.53
2019-03-29T05:55:48.376Z,13.35
2019-03-29T05:56:54.261Z,18.55
2019-03-29T05:57:59.848Z,15.63
2019-03-29T05:59:05.277Z,14.28
2019-03-29T06:00:13.036Z,13.32
2019-03-29T06:01:18.521Z,12.88
2019-03-29T06:02:24.038Z,13.38
2019-03-29T06:03:29.627Z,14.18
2019-03-29T06:04:35.196Z,13.85
2019-03-29T06:05:40.933Z,13.22
2019-03-29T06:06:46.519Z,12.58
2019-03-29T06:07:52.044Z,12.37
2019-03-29T06:09:00.095Z,13.40
2019-03-29T06:10:05.960Z,16.90
2019-03-29T06:11:14.207Z,17.12
2019-03-29T06:12:19.727Z,14.85
2019-03-29T06:13:25.389Z,14.58
2019-03-29T06:14:31.137Z,12.40
2019-03-29T06:15:36.628Z,13.43
2019-03-29T06:16:42.373Z,13.10
2019-03-29T06:17:49.188Z,12.98
2019-03-29T06:18:54.912Z,13.18
2019-03-29T06:20:00.431Z,13.70
2019-03-29T06:21:06.111Z,13.88
2019-03-29T06:22:11.643Z,13.20
2019-03-29T06:23:17.603Z,13.30
2019-03-29T06:24:24.283Z,13.53
2019-03-29T06:25:30.178Z,13.75
2019-03-29T06:26:36.727Z,14.20
2019-03-29T06:27:43.407Z,13.08
2019-03-29T06:28:49.891Z,14.43
2019-03-29T06:29:55.806Z,13.65
2019-03-29T06:31:01.398Z,12.58
2019-03-29T06:32:09.880Z,12.53
2019-03-29T06:33:15.406Z,12.20
2019-03-29T06:34:20.991Z,11.78
2019-03-29T06:35:27.211Z,13.00
2019-03-29T06:36:34.025Z,12.53
2019-03-29T06:37:41.672Z,12.30
2019-03-29T06:38:50.309Z,12.18
2019-03-29T06:39:57.341Z,12.25
2019-03-29T06:41:03.667Z,11.70
2019-03-29T06:42:09.408Z,11.78
2019-03-29T06:43:15.056Z,11.95
2019-03-29T06:44:20.576Z,11.70
2019-03-29T06:45:26.225Z,11.80
2019-03-29T06:46:31.770Z,11.03
2019-03-29T06:47:37.373Z,11.65
2019-03-29T06:48:42.955Z,11.90
2019-03-29T06:49:48.561Z,10.75
2019-03-29T06:50:53.974Z,14.60
2019-03-29T06:51:59.595Z,11.83
2019-03-29T06:53:05.113Z,12.13
2019-03-29T06:54:10.675Z,11.57
2019-03-29T06:55:17.887Z,12.18
2019-03-29T06:56:23.403Z,11.03
2019-03-29T06:57:29.018Z,10.32
2019-03-29T06:58:34.666Z,10.78
2019-03-29T06:59:40.191Z,10.55
2019-03-29T07:00:46.787Z,9.75
2019-03-29T07:01:52.813Z,9.65
2019-03-29T07:02:58.661Z,10.65
2019-03-29T07:04:04.653Z,9.78
2019-03-29T07:05:11.032Z,10.00
2019-03-29T07:06:17.108Z,9.35
2019-03-29T07:07:22.841Z,10.85
2019-03-29T07:08:29.832Z,13.05
2019-03-29T07:09:35.843Z,11.03
2019-03-29T07:10:41.734Z,10.28
2019-03-29T07:11:47.315Z,25.80
2019-03-29T07:12:56.271Z,12.07
2019-03-29T07:14:00.199Z,10.63
2019-03-29T07:15:06.374Z,11.00
2019-03-29T07:16:11.800Z,9.10
2019-03-29T07:17:17.270Z,10.32
2019-03-29T07:18:22.872Z,9.48
2019-03-29T07:19:28.324Z,9.48
2019-03-29T07:20:34.065Z,8.55
2019-03-29T07:21:39.760Z,10.90
2019-03-29T07:22:45.387Z,8.95
2019-03-29T07:23:50.866Z,10.18
2019-03-29T07:24:57.570Z,8.78
2019-03-29T07:26:03.231Z,8.48
2019-03-29T07:27:08.791Z,8.40
2019-03-29T07:28:14.310Z,9.25
2019-03-29T07:29:19.808Z,9.15
2019-03-29T07:30:25.313Z,8.38
2019-03-29T07:31:30.790Z,7.97
2019-03-29T07:32:36.428Z,8.20
2019-03-29T07:33:41.812Z,8.05
2019-03-29T07:34:49.190Z,8.65
2019-03-29T07:35:54.758Z,8.60
2019-03-29T07:37:00.431Z,7.37
2019-03-29T07:38:06.242Z,7.28
2019-03-29T07:39:11.859Z,8.78
2019-03-29T07:40:17.584Z,8.80
2019-03-29T07:41:31.725Z,7.90
2019-03-29T07:42:38.218Z,7.20
2019-03-29T07:43:43.865Z,8.23
2019-03-29T07:44:49.915Z,6.72
2019-03-29T07:45:55.453Z,7.03
2019-03-29T07:47:00.948Z,7.00
2019-03-29T07:48:06.738Z,7.00
2019-03-29T07:49:12.326Z,7.30
2019-03-29T07:50:19.214Z,6.75
2019-03-29T07:51:25.293Z,6.47
2019-03-29T07:52:30.881Z,6.72
2019-03-29T07:53:36.537Z,6.12
2019-03-29T07:54:42.329Z,7.20
2019-03-29T07:55:50.846Z,6.25
2019-03-29T07:56:56.553Z,6.55
2019-03-29T07:58:02.293Z,5.40
2019-03-29T07:59:08.134Z,6.12
2019-03-29T08:00:13.865Z,5.92
2019-03-29T08:01:19.605Z,5.75
2019-03-29T08:02:25.395Z,6.37
2019-03-29T08:03:30.905Z,6.53
2019-03-29T08:04:36.330Z,6.28
2019-03-29T08:05:42.122Z,6.15
2019-03-29T08:06:47.681Z,5.55
2019-03-29T08:07:53.224Z,5.42
2019-03-29T08:08:58.817Z,6.33
2019-03-29T08:10:04.901Z,6.90
2019-03-29T08:11:10.492Z,5.72
2019-03-29T08:12:16.088Z,7.08
2019-03-29T08:13:21.652Z,5.95
2019-03-29T08:14:27.319Z,4.70
2019-03-29T08:15:34.725Z,5.05
2019-03-29T08:16:40.512Z,5.05
2019-03-29T08:17:46.120Z,5.67
2019-03-29T08:18:51.738Z,5.28
2019-03-29T08:20:24.486Z,5.00
2019-03-29T08:21:04.649Z,4.50
2019-03-29T08:22:10.581Z,4.85
2019-03-29T08:23:16.271Z,5.50
2019-03-29T08:24:21.933Z,4.53
2019-03-29T08:25:28.605Z,4.37
2019-03-29T08:26:34.259Z,4.30
2019-03-29T08:27:40.272Z,4.47
2019-03-29T08:28:46.041Z,4.05
2019-03-29T08:29:51.604Z,4.08
2019-03-29T08:30:57.285Z,4.08
2019-03-29T08:32:02.865Z,4.40
2019-03-29T08:33:08.650Z,4.50
2019-03-29T08:34:14.240Z,4.05
2019-03-29T08:35:19.821Z,4.28
2019-03-29T08:36:25.683Z,4.53
2019-03-29T08:37:31.663Z,4.65
2019-03-29T08:38:37.314Z,4.15
2019-03-29T08:39:43.169Z,3.87
2019-03-29T08:40:49.052Z,3.70
2019-03-29T08:42:00.364Z,4.40
2019-03-29T08:43:01.873Z,4.15
2019-03-29T08:44:11.422Z,4.05
2019-03-29T08:45:15.355Z,3.67
2019-03-29T08:46:20.903Z,3.87
2019-03-29T08:47:26.714Z,3.73
2019-03-29T08:48:32.408Z,4.03
2019-03-29T08:49:38.248Z,3.62
2019-03-29T08:50:43.706Z,3.50
2019-03-29T08:51:49.539Z,3.70
2019-03-29T08:52:55.412Z,3.83
2019-03-29T08:54:01.103Z,4.10
2019-03-29T08:55:07.334Z,4.22
2019-03-29T08:56:12.967Z,3.80
2019-03-29T08:57:19.228Z,4.08
2019-03-29T08:58:24.823Z,3.50
2019-03-29T08:59:30.676Z,3.90
2019-03-29T09:00:36.336Z,3.93
2019-03-29T09:01:41.960Z,3.30
2019-03-29T09:02:47.557Z,3.30
2019-03-29T09:04:04.767Z,3.60
2019-03-29T09:05:00.616Z,3.45
2019-03-29T09:06:06.384Z,3.58
2019-03-29T09:07:11.972Z,3.60
2019-03-29T09:08:17.435Z,3.63
2019-03-29T09:09:23.069Z,3.30
2019-03-29T09:10:28.818Z,4.13
2019-03-29T09:11:34.400Z,3.57
2019-03-29T09:13:43.795Z,3.30
2019-03-29T09:14:49.579Z,3.67
2019-03-29T09:15:55.487Z,4.30
2019-03-29T09:17:01.341Z,3.77
2019-03-29T09:18:06.789Z,3.67
2019-03-29T09:19:12.477Z,3.33
2019-03-29T09:20:18.168Z,4.10
2019-03-29T09:21:23.840Z,3.77
2019-03-29T09:22:29.365Z,3.43
2019-03-29T09:23:35.137Z,3.40
2019-03-29T09:24:40.703Z,3.67
2019-03-29T09:25:48.370Z,3.47
2019-03-29T09:26:53.967Z,3.43
2019-03-29T09:27:59.635Z,3.60
2019-03-29T09:29:05.217Z,3.80
2019-03-29T09:30:10.869Z,3.10
2019-03-29T09:31:16.502Z,3.07
2019-03-29T09:32:22.036Z,3.27
2019-03-29T09:33:29.960Z,3.40
2019-03-29T09:34:35.436Z,2.83
2019-03-29T09:35:42.781Z,4.17
2019-03-29T09:36:48.345Z,3.53
2019-03-29T09:37:56.438Z,3.40
2019-03-29T09:39:00.956Z,4.57
2019-03-29T09:40:07.059Z,3.80
2019-03-29T09:41:12.576Z,3.50
2019-03-29T09:42:29.177Z,3.93
2019-03-29T09:43:26.711Z,3.27
2019-03-29T09:44:32.268Z,3.20
2019-03-29T09:45:41.143Z,3.13
2019-03-29T09:46:45.211Z,3.37
2019-03-29T09:47:50.617Z,3.13
2019-03-29T09:48:56.057Z,3.47
2019-03-29T09:50:01.738Z,2.90
2019-03-29T09:51:07.500Z,3.03
2019-03-29T09:52:13.077Z,2.67
2019-03-29T09:53:18.565Z,3.07
2019-03-29T09:54:24.280Z,2.67
2019-03-29T09:55:29.815Z,2.60
2019-03-29T09:56:39.527Z,2.70
2019-03-29T09:57:45.605Z,2.53
2019-03-29T09:58:51.324Z,2.33
2019-03-29T09:59:56.865Z,2.50
2019-03-29T10:01:02.981Z,2.50
2019-03-29T10:02:09.199Z,2.80
2019-03-29T10:03:14.665Z,2.60
2019-03-29T10:04:20.289Z,3.03
2019-03-29T10:05:31.141Z,2.40
2019-03-29T10:06:34.989Z,2.60
2019-03-29T10:07:40.509Z,2.53
2019-03-29T10:08:47.569Z,2.20
2019-03-29T10:09:53.203Z,2.27
2019-03-29T10:10:58.682Z,2.00
2019-03-29T10:12:04.758Z,2.20
2019-03-29T10:13:12.942Z,1.90
2019-03-29T10:14:18.495Z,2.37
2019-03-29T10:15:24.033Z,2.50
2019-03-29T10:16:29.485Z,2.00
2019-03-29T10:17:35.063Z,2.20
2019-03-29T10:18:40.484Z,2.50
2019-03-29T10:19:46.356Z,3.00
2019-03-29T10:20:53.246Z,2.30
2019-03-29T10:21:58.594Z,2.60
2019-03-29T10:23:04.406Z,2.67
2019-03-29T10:24:09.961Z,2.10
2019-03-29T10:25:19.549Z,2.10
2019-03-29T10:26:23.605Z,2.33
2019-03-29T10:27:29.273Z,1.90
2019-03-29T10:28:34.690Z,2.33
2019-03-29T10:29:40.278Z,1.90
2019-03-29T10:30:47.011Z,2.30
2019-03-29T10:31:52.841Z,2.37
2019-03-29T10:32:58.345Z,2.23
2019-03-29T10:34:04.013Z,2.60
2019-03-29T10:35:09.807Z,2.20
2019-03-29T10:36:15.461Z,2.00
2019-03-29T10:37:20.984Z,2.40
2019-03-29T10:38:26.628Z,1.57
2019-03-29T10:39:35.343Z,1.80
2019-03-29T10:40:39.359Z,2.00
2019-03-29T10:41:45.021Z,2.10
2019-03-29T10:42:57.785Z,1.67
2019-03-29T10:43:58.007Z,1.97
2019-03-29T10:45:03.591Z,1.90
2019-03-29T10:46:11.141Z,2.00
2019-03-29T10:47:16.637Z,1.60
2019-03-29T10:48:22.341Z,1.70
2019-03-29T10:49:27.937Z,2.07
2019-03-29T10:50:33.496Z,2.07
2019-03-29T10:51:38.992Z,2.43
2019-03-29T10:52:44.521Z,2.00
2019-03-29T10:53:49.981Z,2.20
2019-03-29T10:54:55.458Z,1.93
2019-03-29T10:56:01.095Z,2.50
2019-03-29T10:57:09.295Z,7.17
2019-03-29T10:58:14.856Z,1.80
2019-03-29T10:59:27.744Z,3.00
2019-03-29T11:00:38.330Z,2.67
2019-03-29T11:01:44.074Z,2.40
2019-03-29T11:02:49.642Z,1.90
2019-03-29T11:03:55.226Z,1.87
2019-03-29T11:05:00.696Z,1.73
2019-03-29T11:06:06.286Z,2.10
2019-03-29T11:07:11.920Z,2.03
2019-03-29T11:08:17.356Z,2.00
2019-03-29T11:09:23.085Z,1.97
2019-03-29T11:10:36.423Z,1.70
2019-03-29T11:11:41.801Z,1.80
2019-03-29T11:12:47.333Z,2.10
2019-03-29T11:13:56.397Z,2.67
2019-03-29T11:15:00.378Z,2.30
2019-03-29T11:16:06.452Z,2.07
2019-03-29T11:17:11.919Z,2.93
2019-03-29T11:18:17.548Z,2.50
2019-03-29T11:19:23.092Z,2.70
2019-03-29T11:20:28.845Z,1.97
2019-03-29T11:21:34.373Z,2.13
2019-03-29T11:22:39.807Z,1.90
2019-03-29T11:23:45.345Z,2.00
2019-03-29T11:24:51.020Z,1.90
2019-03-29T11:25:56.820Z,1.83
2019-03-29T11:27:02.253Z,2.10
2019-03-29T11:28:08.853Z,1.83
2019-03-29T11:29:14.630Z,1.67
2019-03-29T11:30:20.461Z,1.70
2019-03-29T11:31:26.212Z,2.10
2019-03-29T11:32:31.879Z,1.60
2019-03-29T11:33:37.621Z,1.67
2019-03-29T11:34:43.423Z,2.33
2019-03-29T11:35:48.841Z,1.87
2019-03-29T11:36:54.545Z,1.63
2019-03-29T11:37:59.999Z,1.83
2019-03-29T11:39:07.402Z,1.77
2019-03-29T11:40:13.185Z,2.23
2019-03-29T11:41:18.963Z,2.07
2019-03-29T11:42:24.524Z,1.93
2019-03-29T11:43:30.195Z,1.80
2019-03-29T11:44:35.797Z,1.77
2019-03-29T11:45:41.316Z,1.60
2019-03-29T11:46:46.905Z,1.77
2019-03-29T11:48:06.885Z,2.40
2019-03-29T11:48:59.522Z,2.30
2019-03-29T11:50:05.433Z,1.90
2019-03-29T11:51:19.388Z,1.40
2019-03-29T11:52:18.450Z,1.70
2019-03-29T11:53:23.923Z,1.90
2019-03-29T11:54:29.455Z,1.83
2019-03-29T11:55:35.280Z,1.93
2019-03-29T11:56:41.026Z,1.70
2019-03-29T11:57:46.841Z,1.70
2019-03-29T11:58:52.385Z,1.87
2019-03-29T11:59:58.076Z,1.50
2019-03-29T12:01:05.498Z,2.07
2019-03-29T12:02:12.053Z,1.80
2019-03-29T12:03:17.920Z,2.13
2019-03-29T12:04:23.527Z,1.90
2019-03-29T12:05:35.983Z,2.00
2019-03-29T12:06:40.139Z,2.17
2019-03-29T12:07:45.629Z,1.77
2019-03-29T12:08:51.403Z,1.80
2019-03-29T12:09:56.968Z,2.03
2019-03-29T12:11:02.632Z,2.67
2019-03-29T12:12:08.518Z,2.33
2019-03-29T12:13:14.658Z,1.80
2019-03-29T12:14:20.307Z,1.50
2019-03-29T12:15:27.895Z,1.77
2019-03-29T12:16:33.488Z,1.90
2019-03-29T12:17:39.172Z,1.70
2019-03-29T12:18:44.729Z,1.80
2019-03-29T12:19:50.381Z,1.70
2019-03-29T12:20:55.965Z,1.60
2019-03-29T12:22:01.395Z,1.87
2019-03-29T12:23:07.207Z,1.50
2019-03-29T12:24:12.829Z,1.70
2019-03-29T12:25:18.431Z,1.63
2019-03-29T12:26:23.984Z,1.60
2019-03-29T12:27:29.474Z,1.70
2019-03-29T12:28:34.989Z,1.67
2019-03-29T12:29:41.411Z,1.70
2019-03-29T12:30:47.037Z,1.50
2019-03-29T12:31:52.580Z,1.57
2019-03-29T12:32:58.024Z,1.93
2019-03-29T12:34:03.618Z,1.77
2019-03-29T12:35:10.156Z,1.67
2019-03-29T12:36:16.206Z,1.43
2019-03-29T12:37:24.062Z,1.60
2019-03-29T12:38:29.588Z,1.57
2019-03-29T12:39:35.252Z,1.80
2019-03-29T12:40:40.680Z,1.30
2019-03-29T12:41:46.464Z,1.60
2019-03-29T12:42:52.096Z,1.60
2019-03-29T12:43:57.579Z,1.83
2019-03-29T12:45:03.246Z,1.73
2019-03-29T12:46:08.957Z,1.60
2019-03-29T12:47:14.422Z,1.40
2019-03-29T12:48:19.922Z,1.80
2019-03-29T12:49:25.439Z,1.77
2019-03-29T12:50:31.118Z,1.80
2019-03-29T12:51:36.466Z,1.70
2019-03-29T12:52:42.045Z,1.50
2019-03-29T12:53:47.818Z,1.37
2019-03-29T12:54:53.369Z,1.53
2019-03-29T12:55:59.003Z,1.57
2019-03-29T12:57:06.822Z,1.80
2019-03-29T12:58:11.945Z,2.07
2019-03-29T12:59:17.696Z,1.83
2019-03-29T13:00:23.540Z,1.67
2019-03-29T13:01:39.309Z,1.70
2019-03-29T13:02:36.919Z,1.60
2019-03-29T13:03:42.650Z,1.53
2019-03-29T13:04:48.325Z,1.80
2019-03-29T13:05:53.990Z,1.90
2019-03-29T13:06:59.534Z,1.60
2019-03-29T13:08:05.511Z,1.67
2019-03-29T13:09:11.398Z,1.60
2019-03-29T13:10:17.467Z,1.70
2019-03-29T13:11:25.758Z,1.50
2019-03-29T13:12:31.394Z,2.03
2019-03-29T13:13:37.021Z,1.73
2019-03-29T13:14:42.642Z,1.73
2019-03-29T13:15:48.332Z,1.73
2019-03-29T13:16:53.918Z,1.37
2019-03-29T13:17:59.735Z,1.20
2019-03-29T13:19:05.433Z,1.40
2019-03-29T13:20:11.201Z,1.40
2019-03-29T13:21:16.645Z,1.67
2019-03-29T13:22:22.421Z,1.80
2019-03-29T13:23:28.143Z,1.53
2019-03-29T13:24:33.697Z,1.60
2019-03-29T13:25:39.212Z,1.77
2019-03-29T13:26:44.628Z,1.90
2019-03-29T13:27:50.695Z,1.60
2019-03-29T13:28:56.410Z,1.60
2019-03-29T13:30:02.697Z,1.87
2019-03-29T13:31:08.446Z,1.87
2019-03-29T13:32:14.099Z,2.00
2019-03-29T13:33:20.772Z,2.07
2019-03-29T13:34:26.496Z,2.10
2019-03-29T13:35:32.385Z,1.93
2019-03-29T13:36:38.095Z,1.90
2019-03-29T13:37:43.806Z,2.37
2019-03-29T13:38:49.905Z,2.20
2019-03-29T13:39:55.512Z,1.60
2019-03-29T13:41:01.452Z,1.80
2019-03-29T13:42:07.134Z,1.83
2019-03-29T13:43:14.216Z,2.10
2019-03-29T13:44:24.503Z,2.43
2019-03-29T13:45:27.986Z,1.87
2019-03-29T13:46:33.856Z,1.67
2019-03-29T13:47:39.524Z,1.90
2019-03-29T13:48:47.894Z,3.30
2019-03-29T13:49:53.542Z,2.43
2019-03-29T13:50:59.653Z,3.20
2019-03-29T13:52:05.551Z,5.50
2019-03-29T13:53:11.313Z,10.93
2019-03-29T13:54:16.904Z,37.43
2019-03-29T13:55:23.055Z,12.93
2019-03-29T13:56:28.649Z,2.50
2019-03-29T13:57:34.299Z,2.60
2019-03-29T13:58:39.887Z,2.73
2019-03-29T13:59:45.468Z,2.00
2019-03-29T14:00:50.990Z,2.27
2019-03-29T14:01:56.695Z,2.07
2019-03-29T14:03:02.281Z,1.90
2019-03-29T14:04:07.908Z,2.37
2019-03-29T14:05:13.648Z,2.27
2019-03-29T14:06:19.365Z,2.00
2019-03-29T14:07:24.825Z,1.77
2019-03-29T14:08:30.508Z,1.93
2019-03-29T14:09:42.786Z,1.80
2019-03-29T14:10:48.429Z,1.80
2019-03-29T14:11:53.900Z,1.60
2019-03-29T14:12:59.429Z,1.60
2019-03-29T14:14:05.260Z,1.40
2019-03-29T14:15:12.771Z,1.67
2019-03-29T14:16:18.393Z,1.77
2019-03-29T14:17:27.700Z,1.80
2019-03-29T14:18:33.426Z,1.90
2019-03-29T14:19:39.220Z,1.60
2019-03-29T14:20:44.868Z,2.03
2019-03-29T14:21:50.428Z,1.60
2019-03-29T14:22:56.027Z,2.20
2019-03-29T14:24:01.617Z,1.60
2019-03-29T14:25:07.937Z,1.70